Time;durP1;ratioP1;P1;durP2;ratioP2;P2;SDS_P1;SDS_P2;PMS_P1;PMS_P2;Temp;Humidity;BMP_temperature;BMP_pressure;BME280_temperature;BME280_humidity;BME280_pressure;Samples;Min_cycle;Max_cycle;Signal;HPM_P1;HPM_P2
2023/05/14 00:01:07;;;;;;;12.10;6.30;;;;;;;10.23;64.37;100665.33;105778;1253;67958;-68
2023/05/14 00:03:55;;;;;;;13.10;7.00;;;;;;;10.17;64.68;100666.98;105662;1260;72726;-69
2023/05/14 00:06:45;;;;;;;15.40;8.30;;;;;;;10.11;64.99;100671.07;105690;1254;59723;-68
2023/05/14 00:09:34;;;;;;;13.60;6.70;;;;;;;10.06;65.37;100671.93;105743;1254;60370;-68
2023/05/14 00:12:23;;;;;;;13.90;7.90;;;;;;;10.01;65.58;100667.28;106033;1254;72317;-66
2023/05/14 00:15:12;;;;;;;15.70;8.10;;;;;;;9.97;66.00;100663.65;105650;1260;67676;-66
2023/05/14 00:17:59;;;;;;;14.20;6.80;;;;;;;9.93;66.30;100664.25;105702;1260;72756;-66
2023/05/14 00:20:48;;;;;;;15.00;6.70;;;;;;;9.89;66.28;100661.70;105916;1255;59657;-66
2023/05/14 00:23:36;;;;;;;14.80;6.20;;;;;;;9.85;67.16;100661.77;105806;1260;59568;-69
2023/05/14 00:26:24;;;;;;;13.30;6.70;;;;;;;9.82;67.04;100663.04;106332;1263;72501;-68
2023/05/14 00:29:12;;;;;;;11.90;6.00;;;;;;;9.78;66.92;100667.05;106013;1263;68058;-69
2023/05/14 00:32:00;;;;;;;15.90;5.90;;;;;;;9.73;66.98;100671.95;105715;1260;73974;-67
2023/05/14 00:34:49;;;;;;;12.60;5.90;;;;;;;9.64;67.32;100660.69;106117;1264;60362;-68
2023/05/14 00:37:39;;;;;;;11.20;5.90;;;;;;;9.66;67.57;100670.25;105614;1256;60186;-66
2023/05/14 00:40:28;;;;;;;13.90;6.40;;;;;;;9.63;67.70;100666.54;105361;1260;73080;-66
2023/05/14 00:43:19;;;;;;;16.30;6.60;;;;;;;9.60;67.84;100668.87;105347;1257;67743;-67
2023/05/14 00:46:07;;;;;;;13.90;6.20;;;;;;;9.58;67.71;100669.54;105377;1261;72709;-67
2023/05/14 00:48:58;;;;;;;16.40;6.50;;;;;;;9.58;68.43;100667.08;105653;1264;60114;-66
2023/05/14 00:51:47;;;;;;;14.10;7.10;;;;;;;9.59;68.55;100663.13;105610;1263;60040;-67
2023/05/14 00:54:35;;;;;;;11.80;6.10;;;;;;;9.59;69.01;100662.23;105612;1264;73620;-66
2023/05/14 00:57:23;;;;;;;13.30;6.70;;;;;;;9.58;69.03;100660.02;105370;1266;66512;-68
2023/05/14 01:00:13;;;;;;;10.70;6.90;;;;;;;9.57;69.18;100658.26;105497;1262;72950;-67
2023/05/14 01:03:03;;;;;;;11.50;6.60;;;;;;;9.56;69.45;100654.09;105339;1264;59763;-67
2023/05/14 01:06:25;;;;;;;10.10;5.90;;;;;;;9.54;69.22;100654.38;105569;1263;59637;-66
2023/05/14 01:09:31;;;;;;;10.90;6.20;;;;;;;9.52;69.66;100654.50;105688;1263;72503;-67
2023/05/14 01:12:37;;;;;;;14.00;6.40;;;;;;;9.49;69.77;100656.11;105847;1262;68242;-67
2023/05/14 01:15:33;;;;;;;10.60;5.50;;;;;;;9.46;69.62;100656.85;105561;1258;71914;-65
2023/05/14 01:18:23;;;;;;;11.80;5.90;;;;;;;9.42;69.87;100657.83;105650;1257;59915;-67
2023/05/14 01:21:41;;;;;;;10.10;5.10;;;;;;;9.38;69.91;100658.91;105580;1262;60036;-70
2023/05/14 01:24:29;;;;;;;11.30;5.80;;;;;;;9.34;70.54;100650.85;105669;1271;73031;-71
2023/05/14 01:28:12;;;;;;;10.90;5.40;;;;;;;9.30;70.90;100653.75;105824;1265;67925;-70
2023/05/14 01:31:13;;;;;;;10.10;5.60;;;;;;;9.27;71.19;100651.13;105813;1264;72393;-70
2023/05/14 01:34:04;;;;;;;12.60;5.70;;;;;;;9.27;71.76;100653.82;106324;1254;59701;-73
2023/05/14 01:36:57;;;;;;;12.90;5.70;;;;;;;9.27;71.85;100652.20;105793;1260;59575;-69
2023/05/14 01:39:46;;;;;;;13.40;5.60;;;;;;;9.28;71.73;100648.08;105884;1255;73118;-69
2023/05/14 01:42:35;;;;;;;11.80;5.90;;;;;;;9.29;71.95;100649.41;106001;1260;69105;-69
2023/05/14 01:45:23;;;;;;;12.60;6.10;;;;;;;9.29;71.79;100645.67;106183;1257;73001;-69
2023/05/14 01:48:12;;;;;;;11.50;6.60;;;;;;;9.29;71.66;100643.02;105592;1260;59717;-68
2023/05/14 01:51:01;;;;;;;12.10;6.70;;;;;;;9.28;71.62;100641.48;105887;1260;60048;-68
2023/05/14 01:53:50;;;;;;;15.00;6.60;;;;;;;9.27;71.71;100640.69;105770;1254;74024;-67
2023/05/14 01:56:38;;;;;;;12.00;6.60;;;;;;;9.26;71.72;100642.52;105907;1254;67931;-69
2023/05/14 01:59:28;;;;;;;12.90;6.80;;;;;;;9.25;72.03;100642.24;105816;1254;71200;-70
2023/05/14 02:02:17;;;;;;;14.80;7.40;;;;;;;9.24;72.08;100643.88;105837;1254;59730;-69
2023/05/14 02:05:08;;;;;;;13.70;6.90;;;;;;;9.22;72.49;100645.96;104908;1266;1002916;-69
2023/05/14 02:07:56;;;;;;;10.60;6.20;;;;;;;9.20;72.40;100645.34;105595;1264;71759;-69
2023/05/14 02:10:45;;;;;;;12.60;6.80;;;;;;;9.18;72.57;100643.70;105463;1263;65684;-70
2023/05/14 02:13:33;;;;;;;14.00;6.70;;;;;;;9.16;73.07;100636.36;105339;1261;72768;-69
2023/05/14 02:16:21;;;;;;;12.40;6.70;;;;;;;9.17;73.46;100636.71;105368;1267;60292;-69
2023/05/14 02:19:13;;;;;;;11.90;6.20;;;;;;;9.17;73.57;100637.41;105140;1270;59707;-69
2023/05/14 02:22:02;;;;;;;12.60;6.30;;;;;;;9.17;73.56;100636.70;105296;1273;73118;-68
2023/05/14 02:24:51;;;;;;;12.50;6.50;;;;;;;9.18;73.94;100635.97;105188;1265;66579;-69
2023/05/14 02:27:39;;;;;;;12.80;5.70;;;;;;;9.18;73.79;100633.83;104993;1273;72694;-69
2023/05/14 02:30:28;;;;;;;14.30;6.40;;;;;;;9.16;74.12;100632.84;104863;1264;59808;-69
2023/05/14 02:33:17;;;;;;;15.80;6.50;;;;;;;9.14;74.13;100630.15;105428;1270;59728;-69
2023/05/14 02:36:07;;;;;;;12.20;6.30;;;;;;;9.11;74.25;100631.77;105171;1266;71767;-68
2023/05/14 02:38:59;;;;;;;11.50;6.10;;;;;;;9.08;74.50;100628.06;105467;1260;67619;-69
2023/05/14 02:41:47;;;;;;;10.50;6.00;;;;;;;9.05;74.74;100629.12;105614;1261;71407;-68
2023/05/14 02:44:37;;;;;;;12.70;6.90;;;;;;;9.02;74.72;100627.34;105266;1260;59578;-68
2023/05/14 02:47:24;;;;;;;12.80;6.40;;;;;;;9.00;75.09;100627.33;105361;1266;59582;-68
2023/05/14 02:50:13;;;;;;;11.00;6.10;;;;;;;8.99;75.18;100625.60;105322;1265;71280;-70
2023/05/14 02:53:01;;;;;;;12.90;6.30;;;;;;;8.99;75.23;100624.38;105448;1263;67953;-68
2023/05/14 02:55:49;;;;;;;11.30;5.90;;;;;;;8.99;75.42;100622.02;105452;1267;72695;-68
2023/05/14 02:58:38;;;;;;;12.10;6.10;;;;;;;9.01;75.71;100620.55;105383;1265;60282;-68
2023/05/14 03:01:26;;;;;;;11.10;6.30;;;;;;;8.99;75.82;100622.94;105370;1260;60400;-67
2023/05/14 03:04:15;;;;;;;12.80;6.80;;;;;;;9.00;76.15;100624.48;105146;1266;72812;-68
2023/05/14 03:07:03;;;;;;;16.20;7.20;;;;;;;9.01;76.35;100623.19;105383;1263;66882;-68
2023/05/14 03:09:51;;;;;;;13.50;7.00;;;;;;;9.01;76.06;100624.96;105292;1264;72513;-68
2023/05/14 03:12:40;;;;;;;13.30;6.70;;;;;;;8.99;76.28;100622.95;105418;1262;61188;-68
2023/05/14 03:15:28;;;;;;;14.00;6.50;;;;;;;8.98;76.80;100625.11;105376;1263;60479;-68
2023/05/14 03:18:16;;;;;;;13.40;5.90;;;;;;;9.00;76.80;100624.12;105234;1263;71886;-68
2023/05/14 03:21:07;;;;;;;13.30;6.30;;;;;;;9.00;76.99;100614.19;105443;1261;66832;-69
2023/05/14 03:23:56;;;;;;;11.10;5.90;;;;;;;9.08;77.15;100617.42;105300;1260;73149;-67
2023/05/14 03:26:44;;;;;;;15.90;6.80;;;;;;;9.15;77.31;100616.98;105622;1263;59626;-67
2023/05/14 03:29:32;;;;;;;13.10;6.70;;;;;;;9.21;77.29;100617.14;105879;1260;60068;-69
2023/05/14 03:32:20;;;;;;;15.50;6.80;;;;;;;9.27;77.15;100615.91;105896;1254;71641;-69
2023/05/14 03:35:10;;;;;;;11.80;6.20;;;;;;;9.33;76.90;100615.84;105739;1254;66454;-69
2023/05/14 03:37:58;;;;;;;11.10;6.70;;;;;;;9.40;77.00;100612.08;105822;1254;72761;-69
2023/05/14 03:40:50;;;;;;;10.50;6.50;;;;;;;9.45;77.05;100610.69;105961;1255;59672;-70
2023/05/14 03:43:38;;;;;;;17.20;6.80;;;;;;;9.50;77.00;100607.16;105819;1257;59968;-69
2023/05/14 03:46:28;;;;;;;12.50;6.60;;;;;;;9.57;78.33;100604.05;105714;1253;71721;-69
2023/05/14 03:49:16;;;;;;;15.00;6.90;;;;;;;9.67;77.22;100603.24;105763;1254;68003;-68
2023/05/14 03:52:05;;;;;;;15.30;6.00;;;;;;;9.74;77.31;100599.94;105976;1257;71520;-69
2023/05/14 03:54:54;;;;;;;12.10;6.00;;;;;;;9.83;76.88;100592.77;105801;1263;59634;-70
2023/05/14 03:57:44;;;;;;;11.60;6.20;;;;;;;9.92;76.29;100592.55;105842;1262;60425;-69
2023/05/14 04:00:33;;;;;;;15.30;6.90;;;;;;;10.02;76.04;100589.02;106495;1253;71849;-70
2023/05/14 04:03:21;;;;;;;12.50;6.10;;;;;;;10.14;75.83;100592.17;106128;1260;66361;-69
2023/05/14 04:06:10;;;;;;;15.00;6.80;;;;;;;10.23;75.48;100592.09;105864;1263;72743;-71
2023/05/14 04:08:58;;;;;;;13.30;6.80;;;;;;;10.32;75.15;100587.05;106021;1254;59663;-70
2023/05/14 04:11:47;;;;;;;11.10;6.40;;;;;;;10.42;74.81;100587.45;105574;1260;60341;-70
2023/05/14 04:14:37;;;;;;;9.80;5.80;;;;;;;10.52;74.62;100591.76;105416;1266;71766;-72
2023/05/14 04:17:26;;;;;;;14.10;6.70;;;;;;;10.62;75.14;100594.23;105782;1257;66876;-68
2023/05/14 04:20:14;;;;;;;13.80;6.80;;;;;;;10.73;75.14;100598.94;105490;1261;72618;-71
2023/05/14 04:23:02;;;;;;;12.70;6.60;;;;;;;10.86;75.13;100596.83;105455;1266;59778;-70
2023/05/14 04:25:52;;;;;;;17.30;6.90;;;;;;;11.00;74.22;100602.23;105742;1258;59804;-71
2023/05/14 04:28:40;;;;;;;17.30;7.20;;;;;;;11.13;73.99;100602.37;105428;1257;71782;-71
2023/05/14 04:31:30;;;;;;;12.10;6.00;;;;;;;11.26;73.47;100595.58;105591;1257;68746;-68
2023/05/14 04:34:19;;;;;;;14.10;6.80;;;;;;;11.42;72.98;100596.43;106252;1260;72634;-68
2023/05/14 04:37:07;;;;;;;13.40;7.00;;;;;;;11.58;72.71;100593.14;105647;1260;59749;-67
2023/05/14 04:39:56;;;;;;;18.00;6.80;;;;;;;11.76;72.22;100594.84;105430;1260;59725;-71
2023/05/14 04:42:44;;;;;;;12.60;6.30;;;;;;;11.95;71.44;100590.76;105499;1257;72705;-69
2023/05/14 04:45:32;;;;;;;13.70;7.00;;;;;;;12.16;70.90;100591.27;105594;1264;66766;-69
2023/05/14 04:48:23;;;;;;;16.20;7.00;;;;;;;12.39;70.42;100588.84;105964;1256;73672;-70
2023/05/14 04:51:12;;;;;;;14.10;7.60;;;;;;;12.64;69.76;100586.78;105573;1267;59650;-70
2023/05/14 04:54:01;;;;;;;12.60;6.80;;;;;;;12.93;68.82;100584.87;105619;1257;60128;-71
2023/05/14 04:56:53;;;;;;;15.20;7.20;;;;;;;13.22;67.85;100582.17;105716;1258;73142;-69
2023/05/14 04:59:42;;;;;;;13.30;6.90;;;;;;;13.47;66.91;100582.02;105889;1256;65849;-68
2023/05/14 05:02:33;;;;;;;14.20;6.40;;;;;;;13.72;66.22;100580.11;105901;1257;72788;-71
2023/05/14 05:05:29;;;;;;;14.10;6.60;;;;;;;13.98;65.31;100571.85;105755;1257;59642;-74
2023/05/14 05:08:22;;;;;;;15.20;6.40;;;;;;;14.34;64.11;100572.77;106292;1256;60585;-72
2023/05/14 05:11:11;;;;;;;13.00;5.80;;;;;;;14.81;63.17;100570.17;105999;1253;72707;-74
2023/05/14 05:14:03;;;;;;;13.70;5.80;;;;;;;15.85;60.62;100569.13;105799;1263;66481;-70
2023/05/14 05:16:51;;;;;;;14.20;6.00;;;;;;;17.31;56.73;100564.45;105690;1254;72712;-70
2023/05/14 05:19:39;;;;;;;14.70;6.00;;;;;;;18.85;51.72;100559.11;105781;1254;59531;-72
2023/05/14 05:22:32;;;;;;;13.70;5.60;;;;;;;20.38;47.69;100550.34;105779;1262;59677;-72
2023/05/14 05:25:20;;;;;;;13.40;7.30;;;;;;;21.85;44.23;100550.95;105583;1258;73112;-74
2023/05/14 05:28:08;;;;;;;12.20;5.20;;;;;;;23.18;40.74;100547.98;105638;1263;67764;-71
2023/05/14 05:30:56;;;;;;;10.30;4.10;;;;;;;24.35;37.09;100543.02;108397;1257;71665;-72
2023/05/14 05:33:44;;;;;;;10.60;4.20;;;;;;;25.37;35.19;100539.05;108176;1257;59491;-71
2023/05/14 05:36:32;;;;;;;9.30;3.60;;;;;;;26.23;32.22;100539.71;108182;1258;59632;-72
2023/05/14 05:39:20;;;;;;;10.00;3.70;;;;;;;26.93;31.21;100535.49;107105;1262;71805;-72
2023/05/14 05:42:21;;;;;;;7.90;3.30;;;;;;;27.81;29.01;100539.49;105717;1257;66602;-74
2023/05/14 05:45:09;;;;;;;10.20;3.70;;;;;;;28.46;28.44;100532.80;105866;1262;261712;-74
2023/05/14 05:48:01;;;;;;;8.90;3.60;;;;;;;29.04;27.32;100529.42;105471;1263;59740;-69
2023/05/14 05:50:50;;;;;;;9.90;3.70;;;;;;;29.58;26.23;100529.70;105521;1258;59548;-71
2023/05/14 05:53:38;;;;;;;8.80;3.50;;;;;;;30.11;24.86;100532.67;105435;1257;71477;-72
2023/05/14 05:56:27;;;;;;;10.20;3.20;;;;;;;30.51;24.48;100527.90;105585;1257;66689;-71
2023/05/14 05:59:15;;;;;;;10.10;3.20;;;;;;;31.01;23.39;100524.30;105785;1257;72752;-69
2023/05/14 06:02:05;;;;;;;8.80;3.20;;;;;;;31.35;22.19;100525.90;105891;1254;59698;-69
2023/05/14 06:04:53;;;;;;;9.10;3.30;;;;;;;31.69;22.42;100527.27;105802;1260;60217;-72
2023/05/14 06:07:41;;;;;;;8.20;2.80;;;;;;;32.21;22.10;100528.27;105914;1254;73078;-70
2023/05/14 06:10:30;;;;;;;9.10;3.10;;;;;;;32.66;21.42;100527.31;106101;1254;66601;-67
2023/05/14 06:13:19;;;;;;;9.70;3.00;;;;;;;32.84;20.30;100523.05;105703;1254;72671;-70
2023/05/14 06:16:07;;;;;;;7.80;3.00;;;;;;;33.07;20.31;100522.82;107454;1260;59674;-72
2023/05/14 06:18:55;;;;;;;9.60;3.00;;;;;;;33.20;19.64;100521.64;105646;1259;59536;-71
2023/05/14 06:21:43;;;;;;;8.20;2.90;;;;;;;33.26;19.37;100520.23;106529;1255;72889;-71
2023/05/14 06:24:31;;;;;;;9.50;3.10;;;;;;;33.42;19.22;100513.73;106955;1257;66415;-69
2023/05/14 06:27:22;;;;;;;10.60;3.30;;;;;;;33.67;19.12;100510.58;105781;1260;72494;-73
2023/05/14 06:30:11;;;;;;;8.70;2.80;;;;;;;34.00;18.97;100510.42;105614;1257;59605;-73
2023/05/14 06:32:59;;;;;;;8.60;2.80;;;;;;;34.28;18.58;100510.41;105676;1254;60063;-76
2023/05/14 06:35:48;;;;;;;9.50;3.70;;;;;;;34.48;17.94;100507.98;105988;1256;73998;-75
2023/05/14 06:38:36;;;;;;;9.20;2.70;;;;;;;34.71;17.78;100508.42;105674;1263;66951;-75
2023/05/14 06:41:25;;;;;;;11.20;2.80;;;;;;;34.98;17.00;100504.08;106023;1254;72831;-76
2023/05/14 06:44:15;;;;;;;9.30;2.60;;;;;;;35.02;16.53;100503.59;105770;1254;59809;-76
2023/05/14 06:47:07;;;;;;;9.20;2.80;;;;;;;35.14;16.99;100503.77;105995;1254;59677;-76
2023/05/14 06:49:57;;;;;;;7.70;2.30;;;;;;;35.40;16.77;100508.23;105859;1254;73168;-73
2023/05/14 06:52:46;;;;;;;9.40;2.90;;;;;;;35.60;16.18;100504.63;105641;1257;68516;-74
2023/05/14 06:55:34;;;;;;;8.30;2.60;;;;;;;35.67;15.97;100501.70;105760;1260;72450;-73
2023/05/14 06:58:23;;;;;;;9.50;2.80;;;;;;;36.00;16.07;100505.09;105566;1264;59646;-76
2023/05/14 07:01:11;;;;;;;7.40;2.70;;;;;;;36.27;15.80;100507.65;105605;1259;60196;-74
2023/05/14 07:04:01;;;;;;;9.10;2.70;;;;;;;36.35;15.74;100507.30;105604;1254;71761;-72
2023/05/14 07:06:50;;;;;;;8.60;3.10;;;;;;;36.30;16.37;100505.48;105726;1254;66717;-75
2023/05/14 07:09:38;;;;;;;9.20;2.80;;;;;;;36.33;16.38;100504.31;105995;1254;72499;-75
2023/05/14 07:12:30;;;;;;;11.40;2.80;;;;;;;36.24;16.26;100506.70;105850;1254;59741;-75
2023/05/14 07:15:18;;;;;;;9.00;3.00;;;;;;;36.45;16.47;100500.85;105913;1257;60160;-74
2023/05/14 07:18:06;;;;;;;11.30;3.10;;;;;;;36.66;16.37;100500.44;105824;1254;73572;-75
2023/05/14 07:20:55;;;;;;;8.90;2.90;;;;;;;36.80;16.09;100501.50;105807;1253;66503;-76
2023/05/14 07:23:44;;;;;;;9.80;3.00;;;;;;;36.61;15.22;100500.58;106244;1254;71516;-75
2023/05/14 07:26:32;;;;;;;8.90;2.90;;;;;;;36.65;15.48;100498.90;106093;1260;59685;-74
2023/05/14 07:29:20;;;;;;;8.90;2.90;;;;;;;36.61;14.90;100498.52;105848;1254;61044;-73
2023/05/14 07:32:08;;;;;;;10.40;2.70;;;;;;;36.60;14.87;100493.98;105927;1254;71904;-74
2023/05/14 07:34:56;;;;;;;7.30;2.70;;;;;;;36.68;15.08;100492.95;105679;1254;66504;-73
2023/05/14 07:37:45;;;;;;;10.60;2.80;;;;;;;36.85;14.92;100490.02;105728;1254;71928;-74
2023/05/14 07:40:36;;;;;;;7.80;2.40;;;;;;;36.78;14.81;100486.27;105746;1254;59726;-75
2023/05/14 07:43:25;;;;;;;7.50;2.50;;;;;;;36.85;14.76;100486.80;105731;1259;59636;-72
2023/05/14 07:46:14;;;;;;;10.60;2.40;;;;;;;36.99;14.35;100487.55;105657;1254;74053;-71
2023/05/14 07:49:04;;;;;;;7.60;2.40;;;;;;;37.14;14.67;100481.19;105825;1259;67620;-76
2023/05/14 07:51:52;;;;;;;7.50;2.70;;;;;;;37.15;14.15;100479.64;105513;1259;72500;-76
2023/05/14 07:54:43;;;;;;;8.90;2.70;;;;;;;37.09;14.42;100480.44;105574;1255;59641;-74
2023/05/14 07:57:32;;;;;;;13.40;7.10;;;;;;;36.94;13.91;100479.37;105592;1256;59637;-74
2023/05/14 08:00:21;;;;;;;8.60;2.70;;;;;;;36.96;13.96;100480.75;105617;1259;73073;-75
2023/05/14 08:03:10;;;;;;;8.40;2.30;;;;;;;36.87;13.73;100477.73;105563;1256;66594;-74
2023/05/14 08:05:58;;;;;;;8.80;2.20;;;;;;;36.97;13.52;100471.87;105581;1256;71946;-74
2023/05/14 08:08:49;;;;;;;10.60;2.50;;;;;;;37.01;13.54;100468.45;105672;1254;59774;-76
2023/05/14 08:11:38;;;;;;;7.70;2.40;;;;;;;36.99;13.41;100464.20;105499;1256;59683;-74
2023/05/14 08:14:26;;;;;;;12.60;2.80;;;;;;;37.03;13.63;100462.01;105625;1262;73195;-76
2023/05/14 08:17:15;;;;;;;7.60;2.50;;;;;;;37.18;13.57;100463.02;105569;1256;66393;-75
2023/05/14 08:20:05;;;;;;;12.40;2.50;;;;;;;37.23;13.46;100462.03;105680;1256;73659;-75
2023/05/14 08:22:57;;;;;;;9.30;2.60;;;;;;;37.19;12.91;100462.95;105663;1259;59669;-74
2023/05/14 08:25:47;;;;;;;8.10;2.30;;;;;;;37.21;13.05;100461.05;105697;1259;59632;-75
2023/05/14 08:28:35;;;;;;;6.90;2.10;;;;;;;37.24;13.24;100460.09;105819;1256;71758;-76
2023/05/14 08:31:25;;;;;;;8.30;2.40;;;;;;;37.11;12.99;100460.63;106182;1256;66360;-75
2023/05/14 08:34:15;;;;;;;7.20;2.60;;;;;;;36.99;13.20;100458.66;106461;1257;71265;-75
2023/05/14 08:37:04;;;;;;;7.20;2.40;;;;;;;36.99;13.34;100457.10;106564;1255;59826;-75
2023/05/14 08:39:52;;;;;;;9.70;2.70;;;;;;;36.95;13.44;100455.63;106092;1256;60204;-74
2023/05/14 08:42:43;;;;;;;7.20;2.60;;;;;;;36.97;13.46;100453.67;105931;1259;71753;-75
2023/05/14 08:45:35;;;;;;;8.40;2.40;;;;;;;37.16;13.51;100453.60;105701;1258;67607;-74
2023/05/14 08:48:32;;;;;;;9.90;2.70;;;;;;;37.09;13.61;100448.84;105626;1258;72738;-74
2023/05/14 08:51:21;;;;;;;10.80;2.70;;;;;;;37.11;13.64;100445.11;105611;1260;59666;-73
2023/05/14 08:54:14;;;;;;;6.90;2.60;;;;;;;37.02;13.35;100442.55;105609;1261;60604;-74
2023/05/14 08:57:03;;;;;;;9.40;2.70;;;;;;;36.89;13.66;100439.58;105624;1256;73980;-75
2023/05/14 08:59:55;;;;;;;9.50;2.60;;;;;;;36.78;13.90;100435.85;105644;1256;67651;-74
2023/05/14 09:02:45;;;;;;;8.20;2.50;;;;;;;36.91;13.59;100430.36;105518;1260;72855;-74
2023/05/14 09:05:33;;;;;;;8.40;2.70;;;;;;;36.98;13.38;100427.77;105504;1258;59730;-75
2023/05/14 09:08:22;;;;;;;8.90;2.80;;;;;;;37.13;13.34;100426.94;105594;1256;59656;-73
2023/05/14 09:11:12;;;;;;;6.30;2.40;;;;;;;37.14;12.98;100430.81;105702;1262;73073;-76
2023/05/14 09:14:00;;;;;;;8.80;2.50;;;;;;;37.12;12.57;100422.84;105765;1256;68739;-74
2023/05/14 09:16:50;;;;;;;7.30;2.40;;;;;;;37.20;13.03;100421.33;105577;1256;73037;-75
2023/05/14 09:19:40;;;;;;;10.20;2.30;;;;;;;37.16;13.09;100419.38;105675;1264;59702;-75
2023/05/14 09:22:32;;;;;;;7.40;2.00;;;;;;;36.85;12.58;100420.65;105603;1260;60042;-75
2023/05/14 09:25:27;;;;;;;8.80;2.20;;;;;;;36.74;12.45;100420.98;105983;1256;73035;-75
2023/05/14 09:28:17;;;;;;;6.50;1.70;;;;;;;35.77;12.68;100416.73;105725;1255;67703;-76
2023/05/14 09:31:05;;;;;;;7.30;2.10;;;;;;;35.51;13.17;100416.59;105495;1263;72891;-73
2023/05/14 09:33:54;;;;;;;8.80;2.20;;;;;;;34.85;13.28;100413.06;105578;1260;59789;-75
2023/05/14 09:36:42;;;;;;;9.40;2.50;;;;;;;34.56;14.21;100408.52;105275;1264;59814;-74
2023/05/14 09:39:32;;;;;;;7.10;2.20;;;;;;;34.87;14.21;100407.13;105386;1264;73113;-75
2023/05/14 09:42:20;;;;;;;6.90;2.20;;;;;;;35.11;13.28;100405.95;105473;1259;67779;-75
2023/05/14 09:45:10;;;;;;;8.10;2.80;;;;;;;35.56;13.40;100403.20;105445;1259;72591;-75
2023/05/14 09:47:59;;;;;;;9.20;2.60;;;;;;;35.97;13.30;100397.77;105472;1259;59646;-74
2023/05/14 09:50:48;;;;;;;10.20;2.70;;;;;;;36.13;13.22;100396.56;105494;1260;60492;-76
2023/05/14 09:53:40;;;;;;;7.40;2.60;;;;;;;36.19;12.90;100393.81;105315;1260;71432;-74
2023/05/14 09:56:29;;;;;;;9.90;2.50;;;;;;;35.93;13.56;100388.98;105489;1262;66328;-75
2023/05/14 09:59:17;;;;;;;7.90;2.90;;;;;;;36.04;13.81;100385.90;105651;1261;72420;-75
2023/05/14 10:02:36;;;;;;;8.20;2.40;;;;;;;36.30;13.53;100381.83;105617;1265;59872;-76
2023/05/14 10:05:36;;;;;;;6.90;2.10;;;;;;;36.64;12.82;100374.78;105720;1261;60783;-75
2023/05/14 10:08:35;;;;;;;7.80;2.40;;;;;;;36.81;12.90;100376.30;105587;1256;73113;-77
2023/05/14 10:11:29;;;;;;;9.30;2.80;;;;;;;36.93;13.01;100369.91;105941;1256;68858;-76
2023/05/14 10:14:25;;;;;;;8.90;2.60;;;;;;;36.80;12.33;100370.71;107327;1260;71463;-73
2023/05/14 10:17:17;;;;;;;7.20;2.30;;;;;;;36.59;12.82;100370.16;106542;1256;59653;-76
2023/05/14 10:20:10;;;;;;;9.30;2.40;;;;;;;36.52;12.81;100364.50;105884;1259;59606;-73
2023/05/14 10:23:02;;;;;;;10.40;6.10;;;;;;;35.96;12.54;100365.60;105642;1263;72799;-76
2023/05/14 10:25:54;;;;;;;7.10;2.60;;;;;;;35.66;12.53;100361.84;105960;1264;66586;-77
2023/05/14 10:28:48;;;;;;;7.10;2.60;;;;;;;35.51;12.91;100362.20;105377;1270;71223;-76
2023/05/14 10:31:47;;;;;;;7.10;2.50;;;;;;;35.16;13.53;100359.70;105078;1265;59905;-75
2023/05/14 10:34:37;;;;;;;10.50;2.80;;;;;;;35.23;14.43;100357.27;105239;1265;60554;-76
2023/05/14 10:37:27;;;;;;;7.10;2.80;;;;;;;35.54;14.84;100354.27;105209;1265;72951;-76
2023/05/14 10:40:17;;;;;;;6.60;2.40;;;;;;;35.75;14.28;100354.36;106344;1267;68963;-77
2023/05/14 10:43:07;;;;;;;7.80;2.70;;;;;;;35.34;14.66;100350.47;105328;1265;71168;-77
2023/05/14 10:45:57;;;;;;;9.20;2.90;;;;;;;35.47;15.06;100344.83;105495;1265;59811;-78
2023/05/14 10:48:45;;;;;;;8.60;2.80;;;;;;;35.92;15.05;100347.17;105307;1265;60122;-76
2023/05/14 10:51:35;;;;;;;7.30;2.70;;;;;;;36.30;14.86;100335.73;105088;1265;72832;-75
2023/05/14 10:54:28;;;;;;;9.70;3.10;;;;;;;36.73;14.64;100333.67;105196;1265;66481;-75
2023/05/14 10:57:21;;;;;;;7.60;2.90;;;;;;;37.14;14.25;100330.70;105738;1265;72771;-76
2023/05/14 11:00:12;;;;;;;9.10;2.70;;;;;;;37.40;14.04;100329.58;105739;1270;60011;-76
2023/05/14 11:03:04;;;;;;;8.40;2.90;;;;;;;37.46;13.93;100324.48;105591;1262;59770;-75
2023/05/14 11:05:54;;;;;;;7.60;2.90;;;;;;;37.14;13.76;100321.64;106313;1260;71519;-76
2023/05/14 11:08:45;;;;;;;7.50;3.00;;;;;;;36.82;14.27;100317.08;105425;1263;66667;-77
2023/05/14 11:11:35;;;;;;;7.80;2.80;;;;;;;36.48;14.75;100307.23;105569;1265;72801;-75
2023/05/14 11:14:23;;;;;;;9.90;3.00;;;;;;;36.16;14.90;100304.51;105726;1262;59786;-79
2023/05/14 11:17:12;;;;;;;8.20;2.90;;;;;;;35.57;15.54;100306.25;106247;1264;59904;-76
2023/05/14 11:20:00;;;;;;;8.80;3.30;;;;;;;35.02;16.16;100299.66;105527;1260;73091;-76
2023/05/14 11:22:50;;;;;;;8.50;3.00;;;;;;;34.71;16.36;100301.91;105458;1261;67226;-75
2023/05/14 11:25:40;;;;;;;10.10;3.40;;;;;;;34.24;17.00;100297.80;105561;1261;72010;-76
2023/05/14 11:28:29;;;;;;;10.20;3.80;;;;;;;33.12;17.73;100304.93;105609;1262;59778;-76
2023/05/14 11:31:22;;;;;;;9.70;3.80;;;;;;;31.93;18.54;100303.57;106078;1261;60230;-75
2023/05/14 11:34:11;;;;;;;8.80;3.40;;;;;;;31.26;19.19;100302.83;107977;1264;71797;-78
2023/05/14 11:37:05;;;;;;;9.70;3.70;;;;;;;30.66;19.74;100294.43;107405;1263;68228;-74
2023/05/14 11:39:59;;;;;;;10.80;3.60;;;;;;;29.89;19.87;100303.98;107131;1259;72626;-76
2023/05/14 11:42:52;;;;;;;10.80;3.70;;;;;;;29.12;20.60;100302.15;106202;1259;59545;-76
2023/05/14 11:45:41;;;;;;;10.30;3.90;;;;;;;28.46;21.06;100304.39;108178;1259;59854;-77
2023/05/14 11:48:32;;;;;;;8.40;3.90;;;;;;;27.86;21.64;100302.23;106793;1256;72272;-78
2023/05/14 11:51:22;;;;;;;9.10;4.10;;;;;;;27.16;22.64;100295.98;108785;1255;67872;-74
2023/05/14 11:54:13;;;;;;;10.80;4.00;;;;;;;26.72;23.52;100294.66;108779;1255;71428;-77
2023/05/14 11:57:07;;;;;;;11.20;4.40;;;;;;;26.41;24.12;100284.80;106190;1256;59949;-77
2023/05/14 11:59:56;;;;;;;10.60;4.70;;;;;;;26.26;24.76;100283.86;105855;1256;59394;-76
2023/05/14 12:02:48;;;;;;;9.10;4.00;;;;;;;26.24;25.12;100279.65;105949;1256;71773;-78
2023/05/14 12:05:39;;;;;;;8.20;3.70;;;;;;;26.30;24.93;100273.27;105591;1259;66819;-76
2023/05/14 12:08:31;;;;;;;8.20;3.70;;;;;;;26.36;24.56;100268.84;105637;1259;71614;-76
2023/05/14 12:11:21;;;;;;;8.90;3.60;;;;;;;26.40;24.41;100262.19;105538;1260;59750;-75
2023/05/14 12:14:15;;;;;;;9.20;3.70;;;;;;;26.42;24.42;100260.73;105860;1263;59570;-76
2023/05/14 12:17:08;;;;;;;8.80;3.50;;;;;;;26.39;24.35;100254.77;106516;1264;73139;-76
2023/05/14 12:19:56;;;;;;;10.60;4.10;;;;;;;26.19;24.48;100253.61;105495;1259;67763;-75
2023/05/14 12:22:44;;;;;;;8.60;4.10;;;;;;;25.84;24.91;100259.89;105822;1259;72514;-76
2023/05/14 12:25:37;;;;;;;13.10;4.20;;;;;;;25.55;25.63;100257.52;105682;1259;59740;-75
2023/05/14 12:28:32;;;;;;;9.00;3.70;;;;;;;25.42;25.98;100253.32;105516;1259;60214;-74
2023/05/14 12:31:33;;;;;;;9.10;4.20;;;;;;;25.40;26.21;100249.63;105556;1259;71827;-76
2023/05/14 12:34:21;;;;;;;14.60;4.20;;;;;;;25.40;25.76;100249.12;105906;1259;67985;-74
2023/05/14 12:37:10;;;;;;;11.40;4.00;;;;;;;25.24;25.22;100244.39;105682;1257;71438;-74
2023/05/14 12:39:58;;;;;;;11.20;3.90;;;;;;;24.98;25.17;100244.24;105880;1256;59731;-76
2023/05/14 12:42:47;;;;;;;8.70;4.00;;;;;;;24.74;25.35;100238.96;105857;1255;60072;-77
2023/05/14 12:45:36;;;;;;;10.20;4.30;;;;;;;24.51;25.68;100235.69;105871;1256;71555;-77
2023/05/14 12:48:24;;;;;;;8.50;4.20;;;;;;;24.48;26.03;100234.52;105677;1259;68222;-73
2023/05/14 12:51:14;;;;;;;12.20;4.40;;;;;;;24.54;26.14;100232.34;106158;1261;71457;-75
2023/05/14 12:54:03;;;;;;;9.60;4.20;;;;;;;24.60;26.32;100232.45;105867;1256;59581;-75
2023/05/14 12:56:51;;;;;;;11.60;4.30;;;;;;;24.73;26.17;100228.98;105901;1256;60337;-75
2023/05/14 12:59:40;;;;;;;9.70;4.20;;;;;;;24.86;26.01;100224.65;105875;1257;73106;-75